Time;durP1;ratioP1;P1;durP2;ratioP2;P2;SDS_P1;SDS_P2;PMS_P1;PMS_P2;Temp;Humidity;BMP_temperature;BMP_pressure;BME280_temperature;BME280_humidity;BME280_pressure;Samples;Min_cycle;Max_cycle;Signal;HPM_P1;HPM_P2
2022/08/21 00:00:24;;;;;;;16.62;12.68;;;;;;;19.88;93.31;98137.05;1746402;81;28183;-65
2022/08/21 00:03:04;;;;;;;15.63;11.55;;;;;;;19.87;93.25;98135.47;1746267;82;25833;-65
2022/08/21 00:05:35;;;;;;;16.82;12.25;;;;;;;19.84;93.20;98141.81;1745878;81;25583;-66
2022/08/21 00:08:02;;;;;;;15.28;12.13;;;;;;;19.82;93.17;98131.08;1746315;81;25794;-65
2022/08/21 00:10:28;;;;;;;16.60;12.18;;;;;;;19.73;93.53;98128.66;1722914;82;25677;-65
2022/08/21 00:12:55;;;;;;;14.95;11.28;;;;;;;19.72;93.77;98134.60;1746331;82;27632;-65
2022/08/21 00:15:26;;;;;;;15.48;11.05;;;;;;;19.71;94.67;98119.13;1745766;82;27151;-65
2022/08/21 00:17:55;;;;;;;14.15;10.08;;;;;;;19.65;95.09;98113.92;1746239;82;25481;-65
2022/08/21 00:20:23;;;;;;;12.82;10.53;;;;;;;19.58;95.32;98108.33;1746344;82;25694;-65
2022/08/21 00:22:50;;;;;;;14.80;10.32;;;;;;;19.55;95.53;98111.88;1746242;81;25440;-65
2022/08/21 00:25:18;;;;;;;11.95;9.08;;;;;;;19.52;95.67;98109.27;1746231;81;27571;-64
2022/08/21 00:27:46;;;;;;;10.90;9.23;;;;;;;19.53;95.75;98111.47;1746207;81;25609;-65
2022/08/21 00:30:16;;;;;;;12.35;9.40;;;;;;;19.51;96.29;98102.13;1745936;82;25443;-65
2022/08/21 00:32:43;;;;;;;12.20;9.30;;;;;;;19.51;96.02;98097.95;1746409;82;26560;-65
2022/08/21 00:35:15;;;;;;;13.48;9.58;;;;;;;19.52;96.02;98095.37;1742775;80;25730;-65
2022/08/21 00:37:41;;;;;;;11.33;9.25;;;;;;;19.54;95.81;98095.80;1730121;82;27517;-65
2022/08/21 00:40:13;;;;;;;11.30;9.45;;;;;;;19.58;96.07;98100.58;1730154;82;25430;-64
2022/08/21 00:42:39;;;;;;;12.25;10.05;;;;;;;19.62;95.92;98092.46;1730195;82;25619;-65
2022/08/21 00:45:08;;;;;;;11.97;9.20;;;;;;;19.72;95.90;98087.34;1730055;83;25794;-65
2022/08/21 00:47:35;;;;;;;12.85;9.63;;;;;;;19.76;95.59;98083.98;1730280;82;25487;-64
2022/08/21 00:50:03;;;;;;;13.30;10.18;;;;;;;19.79;95.67;98077.64;1730174;82;27441;-64
2022/08/21 00:52:33;;;;;;;10.58;8.85;;;;;;;19.88;95.41;98084.23;1730050;82;25458;-64
2022/08/21 00:55:01;;;;;;;12.20;8.85;;;;;;;19.90;95.20;98082.67;1730372;82;25513;-65
2022/08/21 00:57:38;;;;;;;10.30;8.43;;;;;;;19.93;95.14;98079.69;1730172;82;25827;-64
2022/08/21 01:00:11;;;;;;;11.08;8.23;;;;;;;19.99;94.93;98074.54;1730094;83;25486;-64
2022/08/21 01:02:41;;;;;;;11.43;8.45;;;;;;;19.99;94.58;98069.78;1730234;82;28797;-64
2022/08/21 01:05:13;;;;;;;11.63;8.23;;;;;;;19.98;94.49;98061.83;1730152;82;25474;-64
2022/08/21 01:07:44;;;;;;;14.38;8.78;;;;;;;19.96;94.65;98052.49;1730006;83;25604;-64
2022/08/21 01:10:19;;;;;;;13.53;8.35;;;;;;;19.97;94.58;98050.52;1730065;82;26339;-64
2022/08/21 01:12:57;;;;;;;9.83;8.10;;;;;;;20.03;95.17;98053.12;1729936;83;25683;-64
2022/08/21 01:15:31;;;;;;;11.83;8.50;;;;;;;20.09;94.81;98049.39;1729889;83;27578;-64
2022/08/21 01:18:05;;;;;;;9.65;7.83;;;;;;;20.14;94.40;98048.98;1730098;82;25800;-63
2022/08/21 01:20:38;;;;;;;9.73;7.42;;;;;;;20.10;94.20;98047.60;1729979;83;25415;-63
2022/08/21 01:23:09;;;;;;;9.28;7.35;;;;;;;20.11;94.78;98042.23;1729987;83;25765;-64
2022/08/21 01:25:36;;;;;;;8.90;7.25;;;;;;;20.12;94.58;98041.03;1730098;82;25459;-63
2022/08/21 01:28:10;;;;;;;10.35;7.10;;;;;;;20.16;94.62;98044.64;1730071;83;27498;-63
2022/08/21 01:30:39;;;;;;;11.00;7.55;;;;;;;20.18;94.32;98035.90;1728903;82;25653;-63
2022/08/21 01:33:05;;;;;;;9.30;7.05;;;;;;;20.17;93.94;98044.83;1729996;83;25689;-63
2022/08/21 01:35:32;;;;;;;9.60;6.50;;;;;;;20.14;94.24;98040.05;1729578;81;26095;-63
2022/08/21 01:37:58;;;;;;;10.68;6.37;;;;;;;20.16;94.20;98033.52;1727804;82;25612;-63
2022/08/21 01:40:25;;;;;;;9.63;6.12;;;;;;;20.17;94.27;98029.53;1728006;83;27571;-62
2022/08/21 01:42:51;;;;;;;7.15;5.85;;;;;;;20.14;94.22;98028.92;1727651;83;25608;-62
2022/08/21 01:45:17;;;;;;;6.90;5.70;;;;;;;20.14;94.44;98030.31;1728246;83;25475;-62
2022/08/21 01:47:45;;;;;;;6.90;5.35;;;;;;;20.11;94.26;98022.77;1728096;83;25712;-62
2022/08/21 01:50:16;;;;;;;7.67;5.35;;;;;;;20.12;94.34;98011.83;1728104;83;25667;-62
2022/08/21 01:52:43;;;;;;;8.00;5.20;;;;;;;20.16;94.49;98001.52;1727791;83;27497;-62
2022/08/21 01:55:11;;;;;;;6.97;5.35;;;;;;;20.16;94.21;97996.55;1728510;83;25603;-62
2022/08/21 01:57:38;;;;;;;6.90;4.95;;;;;;;20.22;94.38;98000.53;1728079;83;25517;-62
2022/08/21 02:00:10;;;;;;;7.75;5.08;;;;;;;20.25;94.16;98005.30;1727612;83;26853;-62
2022/08/21 02:02:38;;;;;;;6.87;5.03;;;;;;;20.23;94.05;98004.89;1728096;83;25412;-62
2022/08/21 02:05:05;;;;;;;5.30;4.50;;;;;;;20.24;94.17;98013.46;1728012;83;28356;-62
2022/08/21 02:07:46;;;;;;;7.30;4.55;;;;;;;20.29;94.38;98012.25;1727909;82;25825;-62
2022/08/21 02:10:16;;;;;;;7.87;4.75;;;;;;;20.35;94.10;98008.50;1727067;83;25470;-61
2022/08/21 02:12:42;;;;;;;;;;;;;;;20.29;93.74;97992.77;1730604;83;25904;-61
2022/08/21 02:15:10;;;;;;;6.17;3.95;;;;;;;20.25;93.80;97994.17;1727681;83;25416;-61
2022/08/21 02:17:49;;;;;;;4.97;4.15;;;;;;;20.22;93.86;97994.97;1728062;83;27799;-61
2022/08/21 02:20:24;;;;;;;4.65;3.60;;;;;;;20.23;94.08;97987.43;1728117;83;25584;-61
2022/08/21 02:22:50;;;;;;;6.12;4.05;;;;;;;20.23;94.15;97982.64;1726925;83;25475;-61
2022/08/21 02:25:19;;;;;;;6.17;4.00;;;;;;;20.21;94.22;97986.44;1727696;83;25808;-61
2022/08/21 02:27:47;;;;;;;5.92;3.98;;;;;;;20.25;94.08;97985.02;1727962;83;25679;-61
2022/08/21 02:30:24;;;;;;;6.12;3.65;;;;;;;20.23;94.11;97987.43;1728068;83;27562;-61
2022/08/21 02:32:51;;;;;;;4.35;3.75;;;;;;;20.24;94.11;97986.23;1726981;83;27234;-61
2022/08/21 02:35:18;;;;;;;4.37;3.80;;;;;;;20.23;94.03;97974.91;1727735;83;25636;-61
2022/08/21 02:37:49;;;;;;;4.87;4.03;;;;;;;20.20;93.83;97976.47;1729707;81;25912;-61
2022/08/21 02:40:18;;;;;;;5.55;3.83;;;;;;;20.17;93.88;97979.46;1730013;82;25502;-61
2022/08/21 02:42:45;;;;;;;5.40;3.55;;;;;;;20.17;94.04;97982.24;1730070;82;28262;-61
2022/08/21 02:45:13;;;;;;;5.20;4.20;;;;;;;20.17;93.93;97978.66;1730020;82;25968;-60
2022/08/21 02:47:40;;;;;;;4.92;3.10;;;;;;;20.20;94.23;97978.48;1730087;82;25482;-60
2022/08/21 02:50:08;;;;;;;6.12;3.42;;;;;;;20.22;94.18;97978.86;1730178;82;25695;-60
2022/08/21 02:52:35;;;;;;;3.95;3.20;;;;;;;20.21;94.13;97980.06;1730108;82;25427;-60
2022/08/21 02:55:01;;;;;;;6.28;3.80;;;;;;;20.20;94.09;97979.88;1729987;83;27334;-60
2022/08/21 02:57:27;;;;;;;3.75;3.35;;;;;;;20.21;94.00;97981.45;1730264;82;25664;-60
2022/08/21 02:59:53;;;;;;;5.35;3.40;;;;;;;20.18;94.21;97983.83;1730176;83;25444;-60
2022/08/21 03:02:20;;;;;;;5.65;3.25;;;;;;;20.18;94.51;97989.39;1730140;82;26665;-60
2022/08/21 03:04:46;;;;;;;3.65;2.95;;;;;;;20.23;94.25;97981.86;1730026;83;25569;-60
2022/08/21 03:07:12;;;;;;;7.03;3.50;;;;;;;20.24;94.21;97977.30;1730081;82;27484;-60
2022/08/21 03:09:38;;;;;;;3.37;2.98;;;;;;;20.28;94.11;97983.65;1729736;83;25616;-60
2022/08/21 03:12:05;;;;;;;5.37;3.20;;;;;;;20.29;93.87;97981.64;1730491;82;25688;-60
2022/08/21 03:14:31;;;;;;;3.75;3.00;;;;;;;20.30;94.04;97988.81;1730231;83;25745;-60
2022/08/21 03:16:57;;;;;;;3.83;2.87;;;;;;;20.36;94.05;97989.21;1729945;82;25624;-60
2022/08/21 03:19:23;;;;;;;3.67;2.80;;;;;;;20.36;93.64;97992.80;1729852;82;29531;-60
2022/08/21 03:21:49;;;;;;;4.03;2.80;;;;;;;20.33;93.78;97994.98;1729602;83;27088;-60
2022/08/21 03:24:16;;;;;;;4.72;3.10;;;;;;;20.38;93.76;98000.75;1730096;82;25513;-60
2022/08/21 03:26:42;;;;;;;5.00;2.58;;;;;;;20.32;93.40;98003.11;1730363;82;25765;-60
2022/08/21 03:29:08;;;;;;;3.40;2.92;;;;;;;20.29;93.44;98008.88;1730353;82;25708;-60
2022/08/21 03:31:34;;;;;;;4.75;3.22;;;;;;;20.24;93.41;98003.72;1730011;83;27520;-60
2022/08/21 03:34:00;;;;;;;3.65;2.83;;;;;;;20.24;93.67;98012.07;1730417;82;25445;-60
2022/08/21 03:36:26;;;;;;;4.33;3.67;;;;;;;20.25;93.97;98014.23;1730073;81;25659;-60
2022/08/21 03:38:52;;;;;;;3.87;2.95;;;;;;;20.28;93.69;98014.84;1730017;83;25675;-60
2022/08/21 03:41:19;;;;;;;4.55;3.08;;;;;;;20.24;93.51;98011.27;1730500;82;25426;-60
2022/08/21 03:43:45;;;;;;;4.83;2.70;;;;;;;20.24;93.80;98013.46;1730186;82;27581;-60
2022/08/21 03:46:11;;;;;;;4.90;3.42;;;;;;;20.24;93.82;98023.20;1730419;82;25497;-61
2022/08/21 03:48:38;;;;;;;6.62;3.42;;;;;;;20.24;93.65;98028.77;1730411;82;25446;-67
2022/08/21 03:51:06;;;;;;;5.45;3.70;;;;;;;20.18;93.59;98024.16;1730101;82;26499;-70
2022/08/21 03:53:32;;;;;;;6.12;3.45;;;;;;;20.23;93.72;98023.59;1730494;82;25653;-69
2022/08/21 03:55:59;;;;;;;4.67;4.08;;;;;;;20.26;94.23;98028.36;1729910;82;27477;-70
2022/08/21 03:58:28;;;;;;;5.65;3.83;;;;;;;20.22;93.48;98031.72;1730080;83;25604;-69
2022/08/21 04:00:58;;;;;;;5.67;3.70;;;;;;;20.20;93.90;98032.72;1730460;82;25577;-67
2022/08/21 04:03:26;;;;;;;5.62;3.80;;;;;;;20.25;93.80;98034.52;1730301;82;26324;-66
2022/08/21 04:05:52;;;;;;;7.10;4.03;;;;;;;20.23;93.43;98035.49;1730210;82;25466;-65
2022/08/21 04:08:19;;;;;;;5.22;4.03;;;;;;;20.18;93.85;98035.28;1729880;83;27498;-64
2022/08/21 04:10:50;;;;;;;5.20;3.83;;;;;;;20.25;94.19;98034.52;1730156;82;25910;-63
2022/08/21 04:13:17;;;;;;;6.72;4.08;;;;;;;20.22;94.18;98037.28;1729746;82;25616;-63
2022/08/21 04:15:43;;;;;;;6.28;3.05;;;;;;;20.22;94.18;98038.67;1730360;82;25759;-62
2022/08/21 04:18:09;;;;;;;5.05;3.58;;;;;;;20.21;94.14;98034.31;1726574;82;25633;-62
2022/08/21 04:20:36;;;;;;;6.72;3.50;;;;;;;20.16;94.06;98036.30;1730136;82;28333;-64
2022/08/21 04:23:03;;;;;;;5.80;3.40;;;;;;;20.10;94.22;98034.28;1729929;83;25671;-65
2022/08/21 04:25:30;;;;;;;4.12;3.45;;;;;;;20.08;94.54;98031.89;1716984;82;25712;-65
2022/08/21 04:27:57;;;;;;;4.35;3.35;;;;;;;20.09;94.56;98035.48;1714779;82;25734;-66
2022/08/21 04:30:23;;;;;;;5.53;3.70;;;;;;;20.11;95.34;98033.08;1714651;83;25227;-66
2022/08/21 04:32:51;;;;;;;6.40;3.90;;;;;;;20.16;94.95;98034.09;1716915;82;27366;-66
2022/08/21 04:35:21;;;;;;;4.92;3.80;;;;;;;20.16;94.73;98032.70;1714833;82;25904;-64
2022/08/21 04:37:48;;;;;;;6.00;4.05;;;;;;;20.11;94.68;98038.06;1687391;83;25519;-63
2022/08/21 04:40:16;;;;;;;5.90;4.12;;;;;;;20.03;94.87;98037.24;1717785;82;25790;-64
2022/08/21 04:42:46;;;;;;;5.97;4.25;;;;;;;19.94;95.27;98023.69;1705951;82;25623;-64
2022/08/21 04:45:26;;;;;;;4.70;3.67;;;;;;;19.97;96.13;98026.27;1701042;82;28361;-63
2022/08/21 04:47:58;;;;;;;6.87;4.45;;;;;;;20.01;95.94;98022.12;1704199;82;25632;-64
2022/08/21 04:50:36;;;;;;;5.50;4.28;;;;;;;19.97;95.84;98033.22;1719038;82;25708;-64
2022/08/21 04:53:07;;;;;;;4.78;4.17;;;;;;;19.96;96.22;98038.59;1720340;83;26527;-65
2022/08/21 04:55:38;;;;;;;5.00;4.12;;;;;;;19.93;96.17;98033.23;1701336;82;25432;-64
2022/08/21 04:58:11;;;;;;;6.10;4.60;;;;;;;19.91;96.44;98038.38;1700928;83;27534;-65
2022/08/21 05:00:38;;;;;;;5.40;3.92;;;;;;;19.88;96.66;98032.20;1704749;83;25452;-65
2022/08/21 05:03:07;;;;;;;5.03;3.67;;;;;;;19.89;97.02;98030.23;1701211;84;25411;-66
2022/08/21 05:05:34;;;;;;;5.22;4.22;;;;;;;19.86;96.92;98031.80;1701118;83;25683;-66
2022/08/21 05:08:03;;;;;;;5.28;4.00;;;;;;;19.84;97.08;98037.55;1700661;84;25639;-65
2022/08/21 05:10:31;;;;;;;5.47;4.35;;;;;;;19.85;97.30;98032.98;1700994;84;27457;-64
2022/08/21 05:12:57;;;;;;;5.83;4.22;;;;;;;19.87;97.27;98045.92;1696884;84;25866;-64
2022/08/21 05:15:24;;;;;;;4.92;4.20;;;;;;;19.88;97.11;98043.91;1701097;84;25589;-64
2022/08/21 05:17:50;;;;;;;7.58;4.65;;;;;;;19.90;97.27;98057.64;1728934;82;27881;-64
2022/08/21 05:20:16;;;;;;;5.42;4.35;;;;;;;19.89;97.27;98062.98;1730105;83;25458;-64
2022/08/21 05:22:43;;;;;;;3.67;2.95;;;;;;;19.86;97.07;98068.55;1728329;82;27500;-64
2022/08/21 05:25:10;;;;;;;4.72;2.90;;;;;;;19.85;97.43;98072.50;1700536;84;25717;-64
2022/08/21 05:27:37;;;;;;;3.62;2.45;;;;;;;19.84;97.45;98074.50;1701036;84;25485;-64
2022/08/21 05:30:07;;;;;;;3.85;2.52;;;;;;;19.80;97.21;98078.64;1700875;84;26535;-65
2022/08/21 05:32:34;;;;;;;3.35;2.33;;;;;;;19.77;96.70;98080.01;1699397;84;25688;-66
2022/08/21 05:35:00;;;;;;;3.05;2.60;;;;;;;19.74;96.91;98083.56;1700908;84;27596;-65
2022/08/21 05:37:26;;;;;;;3.42;2.62;;;;;;;19.65;96.70;98079.17;1699705;83;25783;-65
2022/08/21 05:39:52;;;;;;;3.55;2.17;;;;;;;19.62;96.29;98071.62;1698731;83;25490;-66
2022/08/21 05:42:18;;;;;;;2.33;1.95;;;;;;;19.52;96.15;98073.14;1698624;84;25848;-65
2022/08/21 05:44:45;;;;;;;5.03;2.40;;;;;;;19.47;95.93;98071.33;1699026;83;25458;-65
2022/08/21 05:47:11;;;;;;;2.17;1.40;;;;;;;19.44;95.99;98071.53;1698735;84;28041;-65
2022/08/21 05:49:37;;;;;;;2.90;1.40;;;;;;;19.40;95.78;98074.27;1698819;84;25876;-65
2022/08/21 05:52:04;;;;;;;2.65;1.20;;;;;;;19.33;95.30;98069.27;1698628;84;25607;-66
2022/08/21 05:54:31;;;;;;;1.85;1.00;;;;;;;19.30;95.68;98068.88;1698940;83;25619;-65
2022/08/21 05:56:57;;;;;;;2.12;1.10;;;;;;;19.29;95.40;98067.88;1698836;83;25452;-65
2022/08/21 05:59:24;;;;;;;1.55;0.90;;;;;;;19.26;95.29;98068.64;1699110;83;27366;-64
2022/08/21 06:01:51;;;;;;;2.08;1.20;;;;;;;19.23;95.31;98068.80;1698840;84;25918;-63
2022/08/21 06:04:17;;;;;;;1.90;1.10;;;;;;;19.20;95.28;98064.02;1698642;83;25652;-65
2022/08/21 06:06:44;;;;;;;2.00;1.00;;;;;;;19.17;95.84;98065.61;1698855;83;25671;-65
2022/08/21 06:09:10;;;;;;;1.42;0.65;;;;;;;19.20;95.36;98072.36;1698618;83;25632;-64
2022/08/21 06:11:36;;;;;;;0.70;0.70;;;;;;;19.14;94.46;98078.88;1694884;83;27436;-64
2022/08/21 06:14:02;;;;;;;1.30;0.68;;;;;;;19.11;93.92;98076.09;1698886;84;25462;-64
2022/08/21 06:16:29;;;;;;;0.72;0.55;;;;;;;19.06;94.05;98076.60;1698345;83;25449;-64
2022/08/21 06:18:56;;;;;;;0.62;0.50;;;;;;;19.07;93.97;98071.86;1698676;84;25750;-63
2022/08/21 06:21:22;;;;;;;0.75;0.50;;;;;;;19.08;94.01;98071.28;1699170;83;25629;-63
2022/08/21 06:23:48;;;;;;;1.05;0.50;;;;;;;19.10;93.72;98077.25;1699044;84;27357;-64
2022/08/21 06:26:14;;;;;;;1.40;0.60;;;;;;;19.07;92.38;98078.80;1698919;83;25577;-63
2022/08/21 06:28:42;;;;;;;1.55;0.35;;;;;;;19.01;92.08;98084.50;1698984;83;25648;-63
2022/08/21 06:31:22;;;;;;;2.15;0.42;;;;;;;18.98;92.73;98081.91;1699020;83;25678;-63
2022/08/21 06:33:48;;;;;;;0.70;0.40;;;;;;;19.03;92.98;98078.77;1699035;83;25682;-63
2022/08/21 06:36:16;;;;;;;0.90;0.40;;;;;;;19.04;92.13;98085.93;1698989;83;27322;-63
2022/08/21 06:38:42;;;;;;;0.90;0.40;;;;;;;19.01;92.73;98081.15;1716282;83;25804;-63
2022/08/21 06:41:09;;;;;;;1.15;0.55;;;;;;;19.08;92.25;98087.36;1719224;83;25462;-62
2022/08/21 06:43:35;;;;;;;0.82;0.40;;;;;;;19.15;93.15;98083.84;1719322;83;25703;-63
2022/08/21 06:46:01;;;;;;;0.55;0.40;;;;;;;19.14;92.40;98087.20;1719033;83;25474;-62
2022/08/21 06:48:27;;;;;;;3.55;0.57;;;;;;;19.19;91.91;98091.60;1719039;83;28226;-62
2022/08/21 06:50:55;;;;;;;2.65;0.53;;;;;;;19.20;91.92;98095.19;1719103;83;25679;-62
2022/08/21 06:53:21;;;;;;;1.60;0.65;;;;;;;19.22;91.57;98095.58;1719122;83;25641;-64
2022/08/21 06:55:49;;;;;;;2.27;0.90;;;;;;;19.22;92.10;98102.52;1718894;83;27841;-65
2022/08/21 06:58:16;;;;;;;2.20;0.70;;;;;;;19.27;92.30;98103.56;1719044;83;25591;-67
2022/08/21 07:00:46;;;;;;;2.12;0.60;;;;;;;19.31;91.90;98108.55;1718985;82;27575;-68
2022/08/21 07:03:27;;;;;;;1.27;0.80;;;;;;;19.27;92.41;98109.92;1719383;83;25847;-68
2022/08/21 07:05:54;;;;;;;3.10;0.82;;;;;;;19.26;92.18;98112.48;1719529;83;25485;-67
2022/08/21 07:08:22;;;;;;;2.70;0.72;;;;;;;19.27;92.00;98114.09;1719395;83;25787;-67
2022/08/21 07:10:49;;;;;;;0.95;0.60;;;;;;;19.30;92.50;98115.29;1719663;83;25656;-67
2022/08/21 07:13:17;;;;;;;0.88;0.70;;;;;;;19.28;92.32;98111.51;1719472;83;27525;-66
2022/08/21 07:15:43;;;;;;;2.05;0.68;;;;;;;19.27;92.43;98118.84;1719381;83;25600;-66
2022/08/21 07:18:09;;;;;;;2.08;0.60;;;;;;;19.24;92.28;98122.39;1719065;83;25681;-66
2022/08/21 07:20:35;;;;;;;0.98;0.60;;;;;;;19.23;92.28;98118.02;1719347;83;26456;-66
2022/08/21 07:23:06;;;;;;;1.72;0.70;;;;;;;19.22;92.73;98120.58;1719080;83;25671;-66
2022/08/21 07:25:32;;;;;;;1.72;0.50;;;;;;;19.22;92.78;98124.74;1719058;83;27398;-66
2022/08/21 07:27:58;;;;;;;1.57;0.65;;;;;;;19.20;93.07;98124.34;1719362;83;25685;-65
2022/08/21 07:30:24;;;;;;;3.65;0.80;;;;;;;19.27;93.20;98125.78;1719048;83;25442;-65
2022/08/21 07:32:51;;;;;;;1.15;0.80;;;;;;;19.31;93.35;98127.98;1719025;83;25643;-65
2022/08/21 07:35:22;;;;;;;0.88;0.50;;;;;;;19.33;93.17;98125.63;1719312;83;25596;-64
2022/08/21 07:37:48;;;;;;;1.65;0.60;;;;;;;19.38;92.82;98131.42;1712595;83;28443;-65
2022/08/21 07:40:16;;;;;;;0.70;0.60;;;;;;;19.43;92.52;98134.63;1700724;84;26097;-65
2022/08/21 07:42:46;;;;;;;1.57;0.70;;;;;;;19.47;92.38;98143.00;1700848;84;25738;-64
2022/08/21 07:45:13;;;;;;;1.97;1.30;;;;;;;19.42;91.82;98137.78;1697109;84;25824;-64
2022/08/21 07:47:39;;;;;;;1.87;1.25;;;;;;;19.39;91.44;98139.95;1701285;84;25431;-64
2022/08/21 07:50:07;;;;;;;1.80;0.93;;;;;;;19.39;91.71;98137.17;1700618;82;27417;-64
2022/08/21 07:52:34;;;;;;;2.15;1.30;;;;;;;19.38;91.01;98139.17;1700966;84;25636;-64
2022/08/21 07:55:00;;;;;;;1.67;0.80;;;;;;;19.36;91.00;98141.53;1701056;82;25653;-64
2022/08/21 07:57:26;;;;;;;2.98;0.90;;;;;;;19.36;90.97;98135.16;1700730;84;25744;-63
2022/08/21 07:59:53;;;;;;;2.27;1.00;;;;;;;19.36;91.68;98131.00;1700826;84;25679;-63
2022/08/21 08:02:29;;;;;;;1.77;0.85;;;;;;;19.39;91.51;98126.86;1700752;84;27544;-63
2022/08/21 08:05:01;;;;;;;3.90;1.10;;;;;;;19.41;91.63;98133.42;1701093;84;25603;-63
2022/08/21 08:07:27;;;;;;;1.92;1.42;;;;;;;19.42;91.59;98135.01;1705049;82;25770;-63
2022/08/21 08:09:53;;;;;;;2.50;1.55;;;;;;;19.46;91.27;98133.08;1701079;84;26146;-63
2022/08/21 08:12:19;;;;;;;6.10;3.42;;;;;;;19.56;92.00;98130.95;1700853;84;25699;-63
2022/08/21 08:14:46;;;;;;;8.33;4.40;;;;;;;19.71;92.46;98133.02;1700910;84;27516;-63
2022/08/21 08:17:13;;;;;;;11.95;5.75;;;;;;;19.77;91.68;98128.08;1700794;84;25506;-63
2022/08/21 08:19:39;;;;;;;9.73;5.17;;;;;;;19.80;91.38;98131.47;1700964;84;25556;-62
2022/08/21 08:22:15;;;;;;;8.13;4.87;;;;;;;19.78;90.49;98130.27;1700878;84;26523;-62
2022/08/21 08:24:42;;;;;;;6.22;3.80;;;;;;;19.72;90.96;98132.63;1700857;84;25627;-62
2022/08/21 08:27:08;;;;;;;6.33;3.83;;;;;;;19.67;91.07;98132.41;1715021;83;27938;-62
2022/08/21 08:29:35;;;;;;;7.97;4.87;;;;;;;19.63;91.15;98130.79;1729707;82;27144;-61
2022/08/21 08:32:01;;;;;;;13.13;5.87;;;;;;;19.63;91.50;98130.79;1730109;83;25446;-61
2022/08/21 08:34:27;;;;;;;13.55;6.22;;;;;;;19.63;90.95;98136.34;1730315;82;26135;-61
2022/08/21 08:36:54;;;;;;;7.65;3.70;;;;;;;19.59;91.25;98134.12;1730399;82;25486;-61
2022/08/21 08:39:21;;;;;;;3.25;2.27;;;;;;;19.49;90.65;98131.49;1727642;81;27467;-61
2022/08/21 08:41:51;;;;;;;2.10;1.67;;;;;;;19.40;90.89;98122.89;1728573;83;25652;-61
2022/08/21 08:44:18;;;;;;;1.25;1.15;;;;;;;19.32;90.92;98125.44;1730040;83;25416;-61
2022/08/21 08:46:48;;;;;;;1.10;0.90;;;;;;;19.23;91.03;98131.30;1729848;83;25792;-61
2022/08/21 08:49:51;;;;;;;0.82;0.75;;;;;;;19.15;91.00;98126.31;1730470;82;25703;-61
2022/08/21 08:52:47;;;;;;;0.90;0.80;;;;;;;19.06;90.46;98125.20;1665358;85;27447;-60
2022/08/21 08:55:28;;;;;;;1.40;1.30;;;;;;;18.93;90.99;98124.71;1610836;89;25797;-61
2022/08/21 08:57:56;;;;;;;3.05;1.30;;;;;;;18.87;91.09;98135.15;1610885;89;25768;-61
2022/08/21 09:00:24;;;;;;;1.90;1.40;;;;;;;18.80;91.28;98133.13;1610646;89;25712;-62
2022/08/21 09:02:55;;;;;;;2.00;1.70;;;;;;;18.80;92.01;98131.73;1610791;89;25868;-62
2022/08/21 09:05:29;;;;;;;1.60;1.50;;;;;;;18.78;91.91;98127.95;1610688;89;28471;-63
2022/08/21 09:08:33;;;;;;;4.08;1.30;;;;;;;18.77;91.92;98128.34;1610560;89;26488;-63
2022/08/21 09:11:20;;;;;;;0.98;0.98;;;;;;;18.71;92.24;98125.09;1610723;89;25493;-63
2022/08/21 09:14:13;;;;;;;1.00;0.80;;;;;;;18.67;92.26;98131.20;1609933;89;25836;-65
2022/08/21 09:16:51;;;;;;;1.15;1.05;;;;;;;18.64;92.79;98124.45;1610854;89;25790;-65
2022/08/21 09:19:28;;;;;;;2.50;1.10;;;;;;;18.61;92.55;98134.92;1607412;89;27591;-65
2022/08/21 09:22:30;;;;;;;2.80;1.70;;;;;;;18.61;93.03;98139.66;1610589;89;25701;-69
2022/08/21 09:25:23;;;;;;;1.65;0.90;;;;;;;18.60;93.25;98143.05;1610737;89;25497;-66
2022/08/21 09:27:50;;;;;;;1.52;1.30;;;;;;;18.58;93.79;98145.39;1638283;86;25802;-65
2022/08/21 09:30:21;;;;;;;1.10;0.90;;;;;;;18.55;93.57;98153.91;1635535;87;25481;-63
2022/08/21 09:32:47;;;;;;;;;;;;;;;18.55;93.66;98151.13;1688961;84;27441;-62
2022/08/21 09:35:23;;;;;;;0.70;0.70;;;;;;;18.55;93.77;98158.06;1755571;81;25639;-62
2022/08/21 09:38:07;;;;;;;1.07;0.50;;;;;;;18.52;93.45;98161.59;1759036;81;25739;-62
2022/08/21 09:40:41;;;;;;;0.85;0.65;;;;;;;18.50;93.59;98162.55;1759038;81;25795;-62
2022/08/21 09:43:23;;;;;;;1.15;0.60;;;;;;;18.46;93.89;98159.53;1759005;81;25477;-61
2022/08/21 09:46:04;;;;;;;1.25;0.60;;;;;;;18.45;94.13;98155.17;1759378;81;27523;-61
2022/08/21 09:48:42;;;;;;;2.70;0.90;;;;;;;18.42;94.04;98148.38;1759019;81;25573;-62
2022/08/21 09:51:20;;;;;;;1.20;0.80;;;;;;;18.38;94.21;98144.78;1758936;81;25663;-62
2022/08/21 09:53:51;;;;;;;0.93;0.70;;;;;;;18.42;94.57;98151.97;1759267;81;25773;-62
2022/08/21 09:59:31;;;;;;;0.98;0.50;;;;;;;18.50;95.08;98170.06;1758947;81;25648;-62
2022/08/21 10:01:58;;;;;;;1.07;0.50;;;;;;;18.48;94.72;98162.73;1758570;81;25658;-63
2022/08/21 10:04:34;;;;;;;1.60;0.60;;;;;;;18.43;94.73;98155.55;1759348;81;25463;-63
2022/08/21 10:07:12;;;;;;;1.67;0.95;;;;;;;18.39;95.15;98149.95;1759151;81;25925;-63
2022/08/21 10:09:39;;;;;;;0.62;0.40;;;;;;;18.41;95.76;98151.77;1758527;81;25462;-62
2022/08/21 10:12:26;;;;;;;2.40;1.20;;;;;;;18.42;95.55;98164.45;1759248;81;27456;-62
2022/08/21 10:15:03;;;;;;;1.57;0.62;;;;;;;18.46;95.66;98169.23;1759247;81;25778;-62
2022/08/21 10:18:11;;;;;;;1.00;0.70;;;;;;;18.46;95.95;98163.69;1684741;85;25768;-62
2022/08/21 10:20:54;;;;;;;2.85;1.87;;;;;;;18.47;96.33;98160.54;1655324;86;25771;-64
2022/08/21 10:23:56;;;;;;;1.65;1.10;;;;;;;18.49;96.25;98166.52;1684231;85;25486;-64
2022/08/21 10:27:07;;;;;;;0.88;0.60;;;;;;;18.51;96.61;98172.46;1630267;88;28344;-64
2022/08/21 10:30:10;;;;;;;0.40;0.40;;;;;;;18.56;96.60;98167.97;1640534;87;25862;-65
2022/08/21 10:33:03;;;;;;;0.75;0.30;;;;;;;18.61;96.38;98164.06;1667232;86;25723;-66
2022/08/21 10:35:35;;;;;;;0.60;0.40;;;;;;;18.61;96.71;98165.45;1666456;86;25658;-66
2022/08/21 10:38:10;;;;;;;0.50;0.40;;;;;;;18.71;96.95;98172.88;1667701;85;25710;-66
2022/08/21 10:40:41;;;;;;;2.65;0.50;;;;;;;18.77;96.66;98170.75;1673140;85;27438;-66
2022/08/21 10:43:34;;;;;;;1.00;0.50;;;;;;;18.80;96.26;98165.83;1672302;85;25524;-66
2022/08/21 10:46:42;;;;;;;1.05;0.40;;;;;;;18.84;96.26;98163.09;1673127;85;25488;-66
2022/08/21 10:49:35;;;;;;;1.15;0.90;;;;;;;18.86;96.49;98157.97;1670008;85;25757;-65
2022/08/21 10:52:38;;;;;;;1.65;0.82;;;;;;;18.92;96.62;98163.38;1673423;85;25876;-65
2022/08/21 10:55:19;;;;;;;1.50;0.90;;;;;;;18.97;96.23;98165.59;1676409;85;29440;-65
2022/08/21 10:58:00;;;;;;;2.42;1.45;;;;;;;19.01;96.17;98167.80;1678152;85;25538;-65
2022/08/21 11:00:36;;;;;;;;;;;;;;;19.05;95.87;98166.66;1681060;85;25565;-67
2022/08/21 11:03:19;;;;;;;1.67;1.37;;;;;;;19.00;95.06;98164.83;1746211;81;25707;-66
2022/08/21 11:05:54;;;;;;;2.85;1.30;;;;;;;19.03;96.09;98159.29;1764836;81;25572;-66
2022/08/21 11:08:40;;;;;;;1.70;1.40;;;;;;;19.10;97.09;98159.17;1764988;81;28149;-66
2022/08/21 11:11:26;;;;;;;1.37;1.27;;;;;;;19.22;97.04;98161.66;1765156;81;25882;-66
2022/08/21 11:13:58;;;;;;;1.00;0.60;;;;;;;19.29;96.53;98167.27;1764146;81;25667;-66
2022/08/21 11:16:41;;;;;;;1.55;0.85;;;;;;;19.24;95.33;98172.38;1764185;81;25745;-66
2022/08/21 11:19:13;;;;;;;2.55;1.05;;;;;;;19.09;94.26;98176.45;1764597;81;25667;-66
2022/08/21 11:21:50;;;;;;;1.00;0.90;;;;;;;18.96;93.91;98169.53;1765023;80;28049;-66
2022/08/21 11:24:59;;;;;;;1.20;1.10;;;;;;;18.81;93.17;98168.83;1765242;81;25809;-66
2022/08/21 11:27:43;;;;;;;1.35;1.25;;;;;;;18.67;93.64;98170.87;1760872;80;25383;-67
2022/08/21 11:30:11;;;;;;;1.62;1.52;;;;;;;18.59;94.02;98176.12;1765285;81;26512;-67
2022/08/21 11:33:06;;;;;;;3.10;2.80;;;;;;;18.53;93.51;98170.70;1753050;81;25739;-67
2022/08/21 11:35:57;;;;;;;3.70;3.30;;;;;;;18.47;93.92;98173.02;1732798;82;27413;-66
2022/08/21 11:38:43;;;;;;;4.00;3.67;;;;;;;18.39;93.91;98172.75;1733352;81;25540;-67
2022/08/21 11:41:26;;;;;;;4.80;4.40;;;;;;;18.34;94.21;98184.17;1732698;81;25518;-67
2022/08/21 11:44:04;;;;;;;7.53;6.83;;;;;;;18.33;94.70;98179.20;1754268;81;26705;-66
2022/08/21 11:47:07;;;;;;;8.53;7.10;;;;;;;18.31;94.52;98189.28;1646471;86;25493;-66
2022/08/21 11:49:48;;;;;;;9.95;8.60;;;;;;;18.28;93.72;98179.55;1669429;85;27283;-65
2022/08/21 11:52:23;;;;;;;;;;;;;;;18.23;93.86;98186.23;1672663;85;25514;-65
2022/08/21 11:55:20;;;;;;;11.18;8.80;;;;;;;18.18;94.69;98181.81;1670533;85;25693;-66
2022/08/21 11:57:57;;;;;;;11.12;7.75;;;;;;;18.13;94.46;98179.97;1669980;85;25744;-65